sensor_id;sensor_type;location;lat;lon;timestamp;P1;durP1;ratioP1;P2;durP2;ratioP2
45368;SDS011;51342;55.250;37.668;2023-03-03T00:03:34;3.37;;;1.40;;
45368;SDS011;51342;55.250;37.668;2023-03-03T00:06:08;4.07;;;1.20;;
45368;SDS011;51342;55.250;37.668;2023-03-03T00:08:41;5.27;;;1.33;;
45368;SDS011;51342;55.250;37.668;2023-03-03T00:11:12;4.37;;;1.20;;
45368;SDS011;51342;55.250;37.668;2023-03-03T00:13:48;10.83;;;1.50;;
45368;SDS011;51342;55.250;37.668;2023-03-03T00:16:23;5.00;;;1.30;;
45368;SDS011;51342;55.250;37.668;2023-03-03T00:19:24;2.03;;;1.03;;
45368;SDS011;51342;55.250;37.668;2023-03-03T00:21:56;4.63;;;1.10;;
45368;SDS011;51342;55.250;37.668;2023-03-03T00:24:46;3.17;;;1.50;;
45368;SDS011;51342;55.250;37.668;2023-03-03T00:27:29;2.17;;;1.40;;
45368;SDS011;51342;55.250;37.668;2023-03-03T00:30:05;3.10;;;1.10;;
45368;SDS011;51342;55.250;37.668;2023-03-03T00:32:50;7.23;;;1.47;;
45368;SDS011;51342;55.250;37.668;2023-03-03T00:35:30;3.37;;;1.23;;
45368;SDS011;51342;55.250;37.668;2023-03-03T00:38:12;5.80;;;1.70;;
45368;SDS011;51342;55.250;37.668;2023-03-03T00:40:47;3.23;;;1.47;;
45368;SDS011;51342;55.250;37.668;2023-03-03T00:43:19;3.73;;;1.77;;
45368;SDS011;51342;55.250;37.668;2023-03-03T00:45:53;3.17;;;1.43;;
45368;SDS011;51342;55.250;37.668;2023-03-03T00:48:27;3.20;;;1.40;;
45368;SDS011;51342;55.250;37.668;2023-03-03T00:51:01;3.00;;;1.87;;
45368;SDS011;51342;55.250;37.668;2023-03-03T00:53:42;5.40;;;1.90;;
45368;SDS011;51342;55.250;37.668;2023-03-03T00:56:14;4.07;;;1.30;;
45368;SDS011;51342;55.250;37.668;2023-03-03T00:58:46;4.57;;;1.33;;
45368;SDS011;51342;55.250;37.668;2023-03-03T01:01:21;4.93;;;1.57;;
45368;SDS011;51342;55.250;37.668;2023-03-03T01:03:56;4.63;;;1.40;;
45368;SDS011;51342;55.250;37.668;2023-03-03T01:06:27;3.47;;;1.30;;
45368;SDS011;51342;55.250;37.668;2023-03-03T01:08:59;6.60;;;1.53;;
45368;SDS011;51342;55.250;37.668;2023-03-03T01:11:30;3.80;;;1.20;;
45368;SDS011;51342;55.250;37.668;2023-03-03T01:14:02;4.70;;;1.20;;
45368;SDS011;51342;55.250;37.668;2023-03-03T01:16:33;3.30;;;1.00;;
45368;SDS011;51342;55.250;37.668;2023-03-03T01:19:05;3.23;;;1.20;;
45368;SDS011;51342;55.250;37.668;2023-03-03T01:21:36;5.13;;;1.23;;
45368;SDS011;51342;55.250;37.668;2023-03-03T01:24:08;2.80;;;1.07;;
45368;SDS011;51342;55.250;37.668;2023-03-03T01:26:40;3.77;;;1.30;;
45368;SDS011;51342;55.250;37.668;2023-03-03T01:29:12;5.27;;;1.20;;
45368;SDS011;51342;55.250;37.668;2023-03-03T01:31:43;3.07;;;1.10;;
45368;SDS011;51342;55.250;37.668;2023-03-03T01:34:14;2.60;;;1.13;;
45368;SDS011;51342;55.250;37.668;2023-03-03T01:36:46;4.63;;;1.20;;
45368;SDS011;51342;55.250;37.668;2023-03-03T01:39:17;2.63;;;1.27;;
45368;SDS011;51342;55.250;37.668;2023-03-03T01:41:49;3.80;;;1.10;;
45368;SDS011;51342;55.250;37.668;2023-03-03T01:44:20;2.87;;;1.07;;
45368;SDS011;51342;55.250;37.668;2023-03-03T01:47:04;3.93;;;1.80;;
45368;SDS011;51342;55.250;37.668;2023-03-03T01:49:49;2.90;;;1.30;;
45368;SDS011;51342;55.250;37.668;2023-03-03T01:52:34;3.80;;;1.30;;
45368;SDS011;51342;55.250;37.668;2023-03-03T01:55:16;6.13;;;1.50;;
45368;SDS011;51342;55.250;37.668;2023-03-03T01:57:56;5.47;;;1.40;;
45368;SDS011;51342;55.250;37.668;2023-03-03T02:00:33;6.57;;;2.00;;
45368;SDS011;51342;55.250;37.668;2023-03-03T02:03:08;4.90;;;1.40;;
45368;SDS011;51342;55.250;37.668;2023-03-03T02:05:41;3.87;;;1.47;;
45368;SDS011;51342;55.250;37.668;2023-03-03T02:08:14;4.97;;;1.77;;
45368;SDS011;51342;55.250;37.668;2023-03-03T02:10:51;6.03;;;1.70;;
45368;SDS011;51342;55.250;37.668;2023-03-03T02:13:23;5.07;;;1.67;;
45368;SDS011;51342;55.250;37.668;2023-03-03T02:15:59;4.50;;;1.80;;
45368;SDS011;51342;55.250;37.668;2023-03-03T02:18:31;5.43;;;1.70;;
45368;SDS011;51342;55.250;37.668;2023-03-03T02:21:08;7.87;;;1.80;;
45368;SDS011;51342;55.250;37.668;2023-03-03T02:26:43;4.37;;;1.57;;
45368;SDS011;51342;55.250;37.668;2023-03-03T02:29:16;3.90;;;1.60;;
45368;SDS011;51342;55.250;37.668;2023-03-03T02:31:47;6.10;;;2.07;;
45368;SDS011;51342;55.250;37.668;2023-03-03T02:34:19;5.27;;;1.40;;
45368;SDS011;51342;55.250;37.668;2023-03-03T02:36:50;3.23;;;1.63;;
45368;SDS011;51342;55.250;37.668;2023-03-03T02:39:23;3.27;;;1.60;;
45368;SDS011;51342;55.250;37.668;2023-03-03T02:44:46;4.70;;;1.47;;
45368;SDS011;51342;55.250;37.668;2023-03-03T02:47:18;4.37;;;1.73;;
45368;SDS011;51342;55.250;37.668;2023-03-03T02:49:49;7.90;;;2.23;;
45368;SDS011;51342;55.250;37.668;2023-03-03T02:52:22;4.83;;;1.40;;
45368;SDS011;51342;55.250;37.668;2023-03-03T02:54:53;4.90;;;1.30;;
45368;SDS011;51342;55.250;37.668;2023-03-03T02:57:25;4.10;;;1.40;;
45368;SDS011;51342;55.250;37.668;2023-03-03T02:59:58;2.13;;;1.10;;
45368;SDS011;51342;55.250;37.668;2023-03-03T03:02:30;3.67;;;1.50;;
45368;SDS011;51342;55.250;37.668;2023-03-03T03:05:02;5.57;;;1.37;;
45368;SDS011;51342;55.250;37.668;2023-03-03T03:07:33;6.33;;;1.30;;
45368;SDS011;51342;55.250;37.668;2023-03-03T03:10:06;4.17;;;1.50;;
45368;SDS011;51342;55.250;37.668;2023-03-03T03:12:42;7.30;;;1.70;;
45368;SDS011;51342;55.250;37.668;2023-03-03T03:15:15;4.93;;;1.50;;
45368;SDS011;51342;55.250;37.668;2023-03-03T03:17:46;7.00;;;1.37;;
45368;SDS011;51342;55.250;37.668;2023-03-03T03:20:18;2.80;;;1.40;;
45368;SDS011;51342;55.250;37.668;2023-03-03T03:22:49;7.90;;;1.60;;
45368;SDS011;51342;55.250;37.668;2023-03-03T03:25:21;4.03;;;1.57;;
45368;SDS011;51342;55.250;37.668;2023-03-03T03:27:53;4.00;;;1.20;;
45368;SDS011;51342;55.250;37.668;2023-03-03T03:30:24;3.23;;;1.40;;
45368;SDS011;51342;55.250;37.668;2023-03-03T03:32:56;6.43;;;1.87;;
45368;SDS011;51342;55.250;37.668;2023-03-03T03:35:28;4.97;;;1.50;;
45368;SDS011;51342;55.250;37.668;2023-03-03T03:37:59;4.40;;;1.23;;
45368;SDS011;51342;55.250;37.668;2023-03-03T03:40:31;4.33;;;1.30;;
45368;SDS011;51342;55.250;37.668;2023-03-03T03:43:03;3.07;;;1.30;;
45368;SDS011;51342;55.250;37.668;2023-03-03T03:45:34;4.97;;;1.70;;
45368;SDS011;51342;55.250;37.668;2023-03-03T03:48:07;7.20;;;1.30;;
45368;SDS011;51342;55.250;37.668;2023-03-03T03:50:39;4.57;;;1.20;;
45368;SDS011;51342;55.250;37.668;2023-03-03T03:53:11;3.83;;;1.17;;
45368;SDS011;51342;55.250;37.668;2023-03-03T03:55:43;3.53;;;1.30;;
45368;SDS011;51342;55.250;37.668;2023-03-03T03:58:15;5.70;;;1.40;;
45368;SDS011;51342;55.250;37.668;2023-03-03T04:00:51;4.70;;;1.10;;
45368;SDS011;51342;55.250;37.668;2023-03-03T04:03:23;3.47;;;1.33;;
45368;SDS011;51342;55.250;37.668;2023-03-03T04:05:54;4.40;;;1.60;;
45368;SDS011;51342;55.250;37.668;2023-03-03T04:08:26;4.73;;;1.57;;
45368;SDS011;51342;55.250;37.668;2023-03-03T04:10:58;2.77;;;1.20;;
45368;SDS011;51342;55.250;37.668;2023-03-03T04:13:31;4.57;;;1.50;;
45368;SDS011;51342;55.250;37.668;2023-03-03T04:16:05;3.87;;;1.30;;
45368;SDS011;51342;55.250;37.668;2023-03-03T04:18:37;4.70;;;1.40;;
45368;SDS011;51342;55.250;37.668;2023-03-03T04:21:12;7.03;;;1.60;;
45368;SDS011;51342;55.250;37.668;2023-03-03T04:23:45;5.10;;;1.50;;
45368;SDS011;51342;55.250;37.668;2023-03-03T04:26:16;3.23;;;1.40;;
45368;SDS011;51342;55.250;37.668;2023-03-03T04:28:50;6.77;;;1.53;;
45368;SDS011;51342;55.250;37.668;2023-03-03T04:31:22;6.83;;;1.40;;
45368;SDS011;51342;55.250;37.668;2023-03-03T04:33:55;4.80;;;1.60;;
45368;SDS011;51342;55.250;37.668;2023-03-03T04:36:27;5.17;;;1.67;;
45368;SDS011;51342;55.250;37.668;2023-03-03T04:38:59;3.37;;;1.33;;
45368;SDS011;51342;55.250;37.668;2023-03-03T04:41:31;5.53;;;1.40;;
45368;SDS011;51342;55.250;37.668;2023-03-03T04:44:02;6.20;;;1.63;;
45368;SDS011;51342;55.250;37.668;2023-03-03T04:46:34;5.73;;;1.70;;
45368;SDS011;51342;55.250;37.668;2023-03-03T04:49:06;5.57;;;1.53;;
45368;SDS011;51342;55.250;37.668;2023-03-03T04:51:39;3.90;;;1.53;;
45368;SDS011;51342;55.250;37.668;2023-03-03T04:54:10;7.90;;;1.90;;
45368;SDS011;51342;55.250;37.668;2023-03-03T04:56:42;6.27;;;1.90;;
45368;SDS011;51342;55.250;37.668;2023-03-03T04:59:13;5.93;;;1.40;;
45368;SDS011;51342;55.250;37.668;2023-03-03T05:01:45;5.70;;;1.97;;
45368;SDS011;51342;55.250;37.668;2023-03-03T05:04:18;5.93;;;1.40;;
45368;SDS011;51342;55.250;37.668;2023-03-03T05:06:49;10.43;;;2.43;;
45368;SDS011;51342;55.250;37.668;2023-03-03T05:09:20;8.07;;;1.53;;
45368;SDS011;51342;55.250;37.668;2023-03-03T05:11:52;5.43;;;1.53;;
45368;SDS011;51342;55.250;37.668;2023-03-03T05:14:25;5.83;;;1.60;;
45368;SDS011;51342;55.250;37.668;2023-03-03T05:16:57;9.30;;;1.63;;
45368;SDS011;51342;55.250;37.668;2023-03-03T05:19:28;5.97;;;1.70;;
45368;SDS011;51342;55.250;37.668;2023-03-03T05:22:00;5.27;;;1.40;;
45368;SDS011;51342;55.250;37.668;2023-03-03T05:24:32;6.27;;;1.80;;
45368;SDS011;51342;55.250;37.668;2023-03-03T05:27:03;6.00;;;1.40;;
45368;SDS011;51342;55.250;37.668;2023-03-03T05:29:34;8.47;;;1.70;;
45368;SDS011;51342;55.250;37.668;2023-03-03T05:32:06;5.70;;;1.37;;
45368;SDS011;51342;55.250;37.668;2023-03-03T05:34:37;6.47;;;1.33;;
45368;SDS011;51342;55.250;37.668;2023-03-03T05:37:09;2.20;;;0.90;;
45368;SDS011;51342;55.250;37.668;2023-03-03T05:39:40;7.70;;;1.27;;
45368;SDS011;51342;55.250;37.668;2023-03-03T05:42:12;7.63;;;1.20;;
45368;SDS011;51342;55.250;37.668;2023-03-03T05:44:44;4.03;;;1.17;;
45368;SDS011;51342;55.250;37.668;2023-03-03T05:47:16;4.87;;;1.20;;
45368;SDS011;51342;55.250;37.668;2023-03-03T05:49:47;6.93;;;1.50;;
45368;SDS011;51342;55.250;37.668;2023-03-03T05:52:18;5.07;;;1.70;;
45368;SDS011;51342;55.250;37.668;2023-03-03T05:54:50;6.23;;;1.30;;
45368;SDS011;51342;55.250;37.668;2023-03-03T05:57:21;8.90;;;1.40;;
45368;SDS011;51342;55.250;37.668;2023-03-03T05:59:53;5.43;;;1.30;;
45368;SDS011;51342;55.250;37.668;2023-03-03T06:02:25;5.00;;;1.07;;
45368;SDS011;51342;55.250;37.668;2023-03-03T06:04:56;3.63;;;1.20;;
45368;SDS011;51342;55.250;37.668;2023-03-03T06:07:29;2.70;;;0.80;;
45368;SDS011;51342;55.250;37.668;2023-03-03T06:10:00;5.13;;;1.20;;
45368;SDS011;51342;55.250;37.668;2023-03-03T06:12:35;5.17;;;0.93;;
45368;SDS011;51342;55.250;37.668;2023-03-03T06:15:07;3.80;;;1.13;;
45368;SDS011;51342;55.250;37.668;2023-03-03T06:17:40;5.50;;;1.23;;
45368;SDS011;51342;55.250;37.668;2023-03-03T06:20:12;7.20;;;1.10;;
45368;SDS011;51342;55.250;37.668;2023-03-03T06:22:43;4.17;;;1.17;;
45368;SDS011;51342;55.250;37.668;2023-03-03T06:25:15;3.53;;;0.90;;
45368;SDS011;51342;55.250;37.668;2023-03-03T06:27:47;4.73;;;1.37;;
45368;SDS011;51342;55.250;37.668;2023-03-03T06:30:18;5.07;;;1.03;;
45368;SDS011;51342;55.250;37.668;2023-03-03T06:32:49;5.03;;;1.30;;
45368;SDS011;51342;55.250;37.668;2023-03-03T06:35:21;4.77;;;1.40;;
45368;SDS011;51342;55.250;37.668;2023-03-03T06:37:52;4.40;;;1.00;;
45368;SDS011;51342;55.250;37.668;2023-03-03T06:40:24;4.60;;;1.27;;
45368;SDS011;51342;55.250;37.668;2023-03-03T06:42:55;5.27;;;1.63;;
45368;SDS011;51342;55.250;37.668;2023-03-03T06:45:26;6.20;;;0.90;;
45368;SDS011;51342;55.250;37.668;2023-03-03T06:47:58;3.50;;;1.37;;
45368;SDS011;51342;55.250;37.668;2023-03-03T06:50:29;9.67;;;1.40;;
45368;SDS011;51342;55.250;37.668;2023-03-03T06:53:06;5.30;;;1.10;;
45368;SDS011;51342;55.250;37.668;2023-03-03T06:55:42;5.27;;;1.10;;
45368;SDS011;51342;55.250;37.668;2023-03-03T06:58:18;2.90;;;1.20;;
45368;SDS011;51342;55.250;37.668;2023-03-03T07:00:56;5.43;;;0.83;;
45368;SDS011;51342;55.250;37.668;2023-03-03T07:03:32;6.00;;;2.27;;
45368;SDS011;51342;55.250;37.668;2023-03-03T07:06:07;2.97;;;1.20;;
45368;SDS011;51342;55.250;37.668;2023-03-03T07:08:50;6.73;;;1.50;;
45368;SDS011;51342;55.250;37.668;2023-03-03T07:11:22;4.13;;;1.20;;
45368;SDS011;51342;55.250;37.668;2023-03-03T07:13:54;5.47;;;1.40;;
45368;SDS011;51342;55.250;37.668;2023-03-03T07:16:26;6.30;;;1.30;;
45368;SDS011;51342;55.250;37.668;2023-03-03T07:18:58;2.57;;;1.17;;
45368;SDS011;51342;55.250;37.668;2023-03-03T07:21:35;4.03;;;1.02;;
45368;SDS011;51342;55.250;37.668;2023-03-03T07:27:01;5.00;;;1.13;;
45368;SDS011;51342;55.250;37.668;2023-03-03T07:29:39;6.43;;;1.17;;
45368;SDS011;51342;55.250;37.668;2023-03-03T07:35:00;6.37;;;1.17;;
45368;SDS011;51342;55.250;37.668;2023-03-03T07:37:36;7.43;;;1.50;;
45368;SDS011;51342;55.250;37.668;2023-03-03T07:48:41;4.22;;;1.40;;
45368;SDS011;51342;55.250;37.668;2023-03-03T07:51:21;7.00;;;1.30;;
45368;SDS011;51342;55.250;37.668;2023-03-03T07:54:10;5.93;;;1.20;;
45368;SDS011;51342;55.250;37.668;2023-03-03T07:56:44;4.67;;;1.80;;
45368;SDS011;51342;55.250;37.668;2023-03-03T07:59:20;5.03;;;1.00;;
45368;SDS011;51342;55.250;37.668;2023-03-03T08:01:54;4.50;;;1.40;;
45368;SDS011;51342;55.250;37.668;2023-03-03T08:04:32;5.33;;;1.27;;
45368;SDS011;51342;55.250;37.668;2023-03-03T08:07:20;7.10;;;1.50;;
45368;SDS011;51342;55.250;37.668;2023-03-03T08:12:37;5.57;;;1.20;;
45368;SDS011;51342;55.250;37.668;2023-03-03T08:15:12;3.67;;;1.20;;
45368;SDS011;51342;55.250;37.668;2023-03-03T08:17:54;3.73;;;1.20;;
45368;SDS011;51342;55.250;37.668;2023-03-03T08:25:46;3.30;;;1.00;;
45368;SDS011;51342;55.250;37.668;2023-03-03T08:28:20;5.23;;;1.40;;
45368;SDS011;51342;55.250;37.668;2023-03-03T08:30:52;3.13;;;0.90;;
45368;SDS011;51342;55.250;37.668;2023-03-03T08:33:23;4.57;;;1.07;;
45368;SDS011;51342;55.250;37.668;2023-03-03T08:35:55;3.83;;;1.00;;
45368;SDS011;51342;55.250;37.668;2023-03-03T08:38:26;6.37;;;1.30;;
45368;SDS011;51342;55.250;37.668;2023-03-03T08:40:58;1.83;;;0.83;;
45368;SDS011;51342;55.250;37.668;2023-03-03T08:43:30;3.17;;;0.90;;
45368;SDS011;51342;55.250;37.668;2023-03-03T08:46:02;3.87;;;1.00;;
45368;SDS011;51342;55.250;37.668;2023-03-03T08:48:35;5.03;;;1.10;;
45368;SDS011;51342;55.250;37.668;2023-03-03T08:51:11;4.23;;;1.40;;
45368;SDS011;51342;55.250;37.668;2023-03-03T08:53:42;4.00;;;1.27;;
45368;SDS011;51342;55.250;37.668;2023-03-03T08:56:14;1.73;;;0.80;;
45368;SDS011;51342;55.250;37.668;2023-03-03T08:58:45;4.07;;;1.20;;
45368;SDS011;51342;55.250;37.668;2023-03-03T09:01:18;3.33;;;0.87;;
45368;SDS011;51342;55.250;37.668;2023-03-03T09:03:49;3.33;;;0.77;;
45368;SDS011;51342;55.250;37.668;2023-03-03T09:06:21;4.57;;;0.80;;
45368;SDS011;51342;55.250;37.668;2023-03-03T09:08:53;5.23;;;1.07;;
45368;SDS011;51342;55.250;37.668;2023-03-03T09:11:26;4.87;;;1.23;;
45368;SDS011;51342;55.250;37.668;2023-03-03T09:14:32;3.43;;;0.93;;
45368;SDS011;51342;55.250;37.668;2023-03-03T09:16:58;2.17;;;0.80;;
45368;SDS011;51342;55.250;37.668;2023-03-03T09:19:30;3.13;;;0.83;;
45368;SDS011;51342;55.250;37.668;2023-03-03T09:22:19;3.70;;;0.80;;
45368;SDS011;51342;55.250;37.668;2023-03-03T09:24:53;2.53;;;0.87;;
45368;SDS011;51342;55.250;37.668;2023-03-03T09:27:33;2.73;;;0.73;;
45368;SDS011;51342;55.250;37.668;2023-03-03T09:30:50;3.17;;;0.97;;
45368;SDS011;51342;55.250;37.668;2023-03-03T09:36:24;3.87;;;0.90;;
45368;SDS011;51342;55.250;37.668;2023-03-03T09:38:56;2.33;;;0.80;;
45368;SDS011;51342;55.250;37.668;2023-03-03T09:41:46;1.97;;;0.73;;
45368;SDS011;51342;55.250;37.668;2023-03-03T09:44:43;2.67;;;0.80;;
45368;SDS011;51342;55.250;37.668;2023-03-03T09:53:28;3.43;;;0.87;;
45368;SDS011;51342;55.250;37.668;2023-03-03T09:58:46;3.73;;;1.00;;
45368;SDS011;51342;55.250;37.668;2023-03-03T10:01:37;3.40;;;0.87;;
45368;SDS011;51342;55.250;37.668;2023-03-03T10:10:05;2.10;;;0.83;;
45368;SDS011;51342;55.250;37.668;2023-03-03T10:13:09;4.70;;;1.00;;
45368;SDS011;51342;55.250;37.668;2023-03-03T10:18:50;1.53;;;0.70;;
45368;SDS011;51342;55.250;37.668;2023-03-03T10:21:38;1.92;;;0.47;;
45368;SDS011;51342;55.250;37.668;2023-03-03T11:00:24;2.80;;;0.80;;
45368;SDS011;51342;55.250;37.668;2023-03-03T11:05:58;4.20;;;0.90;;
45368;SDS011;51342;55.250;37.668;2023-03-03T11:08:35;3.90;;;0.80;;
45368;SDS011;51342;55.250;37.668;2023-03-03T11:11:22;2.67;;;0.70;;
45368;SDS011;51342;55.250;37.668;2023-03-03T11:14:02;3.43;;;0.80;;
45368;SDS011;51342;55.250;37.668;2023-03-03T11:19:24;4.33;;;0.90;;
45368;SDS011;51342;55.250;37.668;2023-03-03T11:28:22;2.17;;;0.70;;
45368;SDS011;51342;55.250;37.668;2023-03-03T11:36:54;3.40;;;0.67;;
45368;SDS011;51342;55.250;37.668;2023-03-03T11:39:31;3.17;;;0.80;;
45368;SDS011;51342;55.250;37.668;2023-03-03T11:45:01;3.50;;;0.70;;
45368;SDS011;51342;55.250;37.668;2023-03-03T11:50:44;2.37;;;0.77;;
45368;SDS011;51342;55.250;37.668;2023-03-03T12:16:55;2.57;;;0.70;;
45368;SDS011;51342;55.250;37.668;2023-03-03T12:22:30;2.57;;;0.97;;
45368;SDS011;51342;55.250;37.668;2023-03-03T12:27:46;3.33;;;1.20;;
45368;SDS011;51342;55.250;37.668;2023-03-03T12:33:35;3.53;;;0.80;;
45368;SDS011;51342;55.250;37.668;2023-03-03T12:47:39;4.93;;;1.00;;
45368;SDS011;51342;55.250;37.668;2023-03-03T12:50:47;2.37;;;0.70;;
45368;SDS011;51342;55.250;37.668;2023-03-03T12:53:44;4.43;;;1.10;;
45368;SDS011;51342;55.250;37.668;2023-03-03T12:56:32;3.23;;;0.90;;
45368;SDS011;51342;55.250;37.668;2023-03-03T12:59:08;2.42;;;0.73;;
45368;SDS011;51342;55.250;37.668;2023-03-03T13:02:14;3.80;;;0.77;;
45368;SDS011;51342;55.250;37.668;2023-03-03T13:05:09;1.57;;;0.73;;
45368;SDS011;51342;55.250;37.668;2023-03-03T13:11:13;3.30;;;0.70;;
45368;SDS011;51342;55.250;37.668;2023-03-03T13:19:43;2.20;;;0.63;;
45368;SDS011;51342;55.250;37.668;2023-03-03T13:22:17;2.03;;;0.50;;
45368;SDS011;51342;55.250;37.668;2023-03-03T13:27:57;3.03;;;0.70;;
45368;SDS011;51342;55.250;37.668;2023-03-03T13:30:33;2.47;;;1.60;;
45368;SDS011;51342;55.250;37.668;2023-03-03T13:33:10;2.05;;;0.73;;
45368;SDS011;51342;55.250;37.668;2023-03-03T13:36:02;4.37;;;0.77;;
45368;SDS011;51342;55.250;37.668;2023-03-03T13:39:27;5.37;;;0.80;;
45368;SDS011;51342;55.250;37.668;2023-03-03T13:42:02;2.57;;;0.67;;
45368;SDS011;51342;55.250;37.668;2023-03-03T13:44:41;5.07;;;1.30;;
45368;SDS011;51342;55.250;37.668;2023-03-03T13:47:35;3.10;;;0.87;;
45368;SDS011;51342;55.250;37.668;2023-03-03T13:56:30;3.73;;;1.10;;
45368;SDS011;51342;55.250;37.668;2023-03-03T14:05:00;4.27;;;0.70;;
45368;SDS011;51342;55.250;37.668;2023-03-03T14:10:30;2.97;;;0.70;;
45368;SDS011;51342;55.250;37.668;2023-03-03T14:13:08;5.27;;;1.30;;
45368;SDS011;51342;55.250;37.668;2023-03-03T14:18:22;1.67;;;0.67;;
45368;SDS011;51342;55.250;37.668;2023-03-03T14:20:55;3.27;;;0.70;;
45368;SDS011;51342;55.250;37.668;2023-03-03T14:23:50;2.40;;;0.80;;
45368;SDS011;51342;55.250;37.668;2023-03-03T14:26:29;3.50;;;0.80;;
45368;SDS011;51342;55.250;37.668;2023-03-03T14:29:12;2.20;;;1.00;;
45368;SDS011;51342;55.250;37.668;2023-03-03T14:31:50;4.30;;;1.00;;
45368;SDS011;51342;55.250;37.668;2023-03-03T14:36:57;1.90;;;1.33;;
45368;SDS011;51342;55.250;37.668;2023-03-03T14:39:38;3.60;;;0.70;;
45368;SDS011;51342;55.250;37.668;2023-03-03T14:42:13;3.17;;;1.10;;
45368;SDS011;51342;55.250;37.668;2023-03-03T14:45:14;2.27;;;0.67;;
45368;SDS011;51342;55.250;37.668;2023-03-03T14:47:51;4.27;;;1.13;;
45368;SDS011;51342;55.250;37.668;2023-03-03T14:50:30;2.27;;;0.50;;
45368;SDS011;51342;55.250;37.668;2023-03-03T14:53:13;2.97;;;0.70;;
45368;SDS011;51342;55.250;37.668;2023-03-03T14:55:49;2.50;;;0.70;;
45368;SDS011;51342;55.250;37.668;2023-03-03T14:59:09;3.90;;;0.77;;
45368;SDS011;51342;55.250;37.668;2023-03-03T15:04:02;2.60;;;0.50;;
45368;SDS011;51342;55.250;37.668;2023-03-03T15:06:43;2.50;;;0.60;;
45368;SDS011;51342;55.250;37.668;2023-03-03T15:10:08;2.73;;;0.70;;
45368;SDS011;51342;55.250;37.668;2023-03-03T15:12:21;3.50;;;0.70;;
45368;SDS011;51342;55.250;37.668;2023-03-03T15:23:10;2.47;;;0.60;;
45368;SDS011;51342;55.250;37.668;2023-03-03T15:29:15;3.00;;;0.60;;
45368;SDS011;51342;55.250;37.668;2023-03-03T15:31:59;3.63;;;0.77;;
45368;SDS011;51342;55.250;37.668;2023-03-03T15:34:56;3.30;;;0.70;;
45368;SDS011;51342;55.250;37.668;2023-03-03T15:49:31;2.67;;;1.20;;
45368;SDS011;51342;55.250;37.668;2023-03-03T15:58:31;5.23;;;1.20;;
45368;SDS011;51342;55.250;37.668;2023-03-03T16:01:40;3.20;;;0.90;;
45368;SDS011;51342;55.250;37.668;2023-03-03T16:04:30;3.00;;;1.00;;
45368;SDS011;51342;55.250;37.668;2023-03-03T16:07:06;3.30;;;0.90;;
45368;SDS011;51342;55.250;37.668;2023-03-03T16:12:53;3.13;;;1.27;;
45368;SDS011;51342;55.250;37.668;2023-03-03T16:15:44;5.03;;;1.23;;
45368;SDS011;51342;55.250;37.668;2023-03-03T16:18:29;2.47;;;0.90;;
45368;SDS011;51342;55.250;37.668;2023-03-03T16:24:06;3.90;;;1.23;;
45368;SDS011;51342;55.250;37.668;2023-03-03T16:32:31;3.60;;;1.17;;
45368;SDS011;51342;55.250;37.668;2023-03-03T16:35:23;2.67;;;1.07;;
45368;SDS011;51342;55.250;37.668;2023-03-03T16:43:36;2.40;;;0.80;;
45368;SDS011;51342;55.250;37.668;2023-03-03T16:46:19;3.07;;;1.10;;
45368;SDS011;51342;55.250;37.668;2023-03-03T16:52:19;2.87;;;0.87;;
45368;SDS011;51342;55.250;37.668;2023-03-03T16:54:58;4.47;;;1.10;;
45368;SDS011;51342;55.250;37.668;2023-03-03T17:00:11;3.17;;;1.10;;
45368;SDS011;51342;55.250;37.668;2023-03-03T17:14:12;4.47;;;1.45;;
45368;SDS011;51342;55.250;37.668;2023-03-03T17:16:59;3.07;;;1.60;;
45368;SDS011;51342;55.250;37.668;2023-03-03T17:22:23;3.37;;;1.20;;
45368;SDS011;51342;55.250;37.668;2023-03-03T17:25:27;4.40;;;1.40;;
45368;SDS011;51342;55.250;37.668;2023-03-03T17:36:31;7.83;;;2.30;;
45368;SDS011;51342;55.250;37.668;2023-03-03T17:56:22;3.67;;;1.80;;
45368;SDS011;51342;55.250;37.668;2023-03-03T18:04:37;4.87;;;1.83;;
45368;SDS011;51342;55.250;37.668;2023-03-03T18:07:30;6.50;;;2.43;;
45368;SDS011;51342;55.250;37.668;2023-03-03T18:13:23;3.63;;;2.40;;
45368;SDS011;51342;55.250;37.668;2023-03-03T18:24:29;5.97;;;2.10;;
45368;SDS011;51342;55.250;37.668;2023-03-03T18:38:21;6.33;;;2.30;;
45368;SDS011;51342;55.250;37.668;2023-03-03T18:41:11;9.10;;;2.43;;
45368;SDS011;51342;55.250;37.668;2023-03-03T18:43:53;6.90;;;2.33;;
45368;SDS011;51342;55.250;37.668;2023-03-03T18:49:10;6.40;;;2.80;;
45368;SDS011;51342;55.250;37.668;2023-03-03T19:04:55;5.40;;;2.60;;
45368;SDS011;51342;55.250;37.668;2023-03-03T19:12:50;6.87;;;3.07;;
45368;SDS011;51342;55.250;37.668;2023-03-03T19:18:16;5.90;;;2.90;;
45368;SDS011;51342;55.250;37.668;2023-03-03T19:20:57;4.40;;;2.47;;
45368;SDS011;51342;55.250;37.668;2023-03-03T19:23:34;4.33;;;2.27;;
45368;SDS011;51342;55.250;37.668;2023-03-03T19:35:36;5.30;;;2.63;;
45368;SDS011;51342;55.250;37.668;2023-03-03T19:43:42;4.43;;;2.63;;
45368;SDS011;51342;55.250;37.668;2023-03-03T19:46:34;5.10;;;2.47;;
45368;SDS011;51342;55.250;37.668;2023-03-03T19:49:45;3.90;;;2.30;;
45368;SDS011;51342;55.250;37.668;2023-03-03T19:52:45;4.73;;;2.30;;
45368;SDS011;51342;55.250;37.668;2023-03-03T19:55:42;6.70;;;2.80;;
45368;SDS011;51342;55.250;37.668;2023-03-03T19:58:32;4.10;;;2.47;;
45368;SDS011;51342;55.250;37.668;2023-03-03T20:06:51;4.55;;;2.30;;
45368;SDS011;51342;55.250;37.668;2023-03-03T20:15:09;7.00;;;2.63;;
45368;SDS011;51342;55.250;37.668;2023-03-03T20:20:35;5.65;;;2.85;;
45368;SDS011;51342;55.250;37.668;2023-03-03T20:26:20;7.70;;;3.10;;
45368;SDS011;51342;55.250;37.668;2023-03-03T20:31:55;5.47;;;2.83;;
45368;SDS011;51342;55.250;37.668;2023-03-03T20:37:35;5.10;;;2.47;;
45368;SDS011;51342;55.250;37.668;2023-03-03T20:49:32;5.37;;;2.50;;
45368;SDS011;51342;55.250;37.668;2023-03-03T20:57:25;5.17;;;2.50;;
45368;SDS011;51342;55.250;37.668;2023-03-03T21:06:04;6.00;;;2.27;;
45368;SDS011;51342;55.250;37.668;2023-03-03T21:08:50;4.37;;;2.40;;
45368;SDS011;51342;55.250;37.668;2023-03-03T21:14:00;3.87;;;2.43;;
45368;SDS011;51342;55.250;37.668;2023-03-03T21:16:47;5.27;;;2.50;;
45368;SDS011;51342;55.250;37.668;2023-03-03T21:19:24;5.47;;;2.23;;
45368;SDS011;51342;55.250;37.668;2023-03-03T21:22:01;6.53;;;2.10;;
45368;SDS011;51342;55.250;37.668;2023-03-03T21:24:50;5.57;;;1.80;;
45368;SDS011;51342;55.250;37.668;2023-03-03T21:27:29;3.73;;;2.50;;
45368;SDS011;51342;55.250;37.668;2023-03-03T21:30:06;3.43;;;1.77;;
45368;SDS011;51342;55.250;37.668;2023-03-03T21:32:47;7.43;;;2.20;;
45368;SDS011;51342;55.250;37.668;2023-03-03T21:35:19;3.73;;;1.77;;
45368;SDS011;51342;55.250;37.668;2023-03-03T21:37:55;4.43;;;1.73;;
45368;SDS011;51342;55.250;37.668;2023-03-03T21:40:27;4.17;;;1.80;;
45368;SDS011;51342;55.250;37.668;2023-03-03T21:43:00;4.90;;;2.27;;
45368;SDS011;51342;55.250;37.668;2023-03-03T21:45:31;3.50;;;2.00;;
45368;SDS011;51342;55.250;37.668;2023-03-03T21:48:03;4.27;;;1.90;;
45368;SDS011;51342;55.250;37.668;2023-03-03T21:50:34;3.50;;;1.83;;
45368;SDS011;51342;55.250;37.668;2023-03-03T21:53:06;3.47;;;1.80;;
45368;SDS011;51342;55.250;37.668;2023-03-03T21:55:37;6.03;;;1.90;;
45368;SDS011;51342;55.250;37.668;2023-03-03T21:58:08;3.80;;;1.70;;
45368;SDS011;51342;55.250;37.668;2023-03-03T22:00:40;4.03;;;1.80;;
45368;SDS011;51342;55.250;37.668;2023-03-03T22:03:13;4.73;;;2.17;;
45368;SDS011;51342;55.250;37.668;2023-03-03T22:05:46;5.73;;;1.77;;
45368;SDS011;51342;55.250;37.668;2023-03-03T22:08:20;3.93;;;1.47;;